createdAt,value
2023-05-13T00:00:44.653Z,100954.92
2023-05-13T00:01:49.813Z,100955.03
2023-05-13T00:02:53.472Z,100956.13
2023-05-13T00:03:58.020Z,100956.13
2023-05-13T00:05:01.702Z,100960.61
2023-05-13T00:06:05.141Z,100955.47
2023-05-13T00:07:08.813Z,100962.84
2023-05-13T00:08:11.897Z,100960.27
2023-05-13T00:09:15.406Z,100958.89
2023-05-13T00:10:21.832Z,100959.95
2023-05-13T00:11:26.803Z,100958.05
2023-05-13T00:12:31.267Z,100960.16
2023-05-13T00:13:35.526Z,100961.33
2023-05-13T00:14:39.411Z,100963.79
2023-05-13T00:15:43.121Z,100953.11
2023-05-13T00:16:46.011Z,100954.92
2023-05-13T00:17:49.689Z,100957.59
2023-05-13T00:18:54.061Z,100954.27
2023-05-13T00:19:59.016Z,100956.09
2023-05-13T00:21:02.219Z,100957.28
2023-05-13T00:22:05.831Z,100957.79
2023-05-13T00:23:09.340Z,100952.45
2023-05-13T00:24:13.662Z,100953.31
2023-05-13T00:25:17.277Z,100952.66
2023-05-13T00:26:20.783Z,100953.61
2023-05-13T00:27:24.701Z,100946.66
2023-05-13T00:28:30.196Z,100955.86
2023-05-13T00:29:33.534Z,100948.91
2023-05-13T00:30:37.514Z,100950.92
2023-05-13T00:31:42.300Z,100959.02
2023-05-13T00:32:46.959Z,100956.56
2023-05-13T00:33:50.644Z,100957.95
2023-05-13T00:34:56.656Z,100952.91
2023-05-13T00:36:00.057Z,100961.01
2023-05-13T00:37:03.463Z,100959.39
2023-05-13T00:38:07.476Z,100957.59
2023-05-13T00:39:12.020Z,100957.29
2023-05-13T00:40:19.075Z,100956.63
2023-05-13T00:41:24.885Z,100956.23
2023-05-13T00:42:28.590Z,100963.19
2023-05-13T00:43:32.443Z,100962.98
2023-05-13T00:44:35.619Z,100962.23
2023-05-13T00:45:39.557Z,100956.13
2023-05-13T00:46:43.257Z,100961.86
2023-05-13T00:47:47.580Z,100957.48
2023-05-13T00:48:52.049Z,100967.00
2023-05-13T00:49:54.733Z,100959.75
2023-05-13T00:50:59.424Z,100968.81
2023-05-13T00:52:02.948Z,100962.42
2023-05-13T00:53:06.482Z,100962.23
2023-05-13T00:54:09.568Z,100959.95
2023-05-13T00:55:12.022Z,100965.39
2023-05-13T00:56:17.081Z,100967.39
2023-05-13T00:57:19.557Z,100967.79
2023-05-13T00:58:23.529Z,100969.80
2023-05-13T00:59:28.991Z,100961.23
2023-05-13T01:00:36.947Z,100963.80
2023-05-13T01:01:43.503Z,100959.89
2023-05-13T01:02:51.932Z,100960.84
2023-05-13T01:04:09.976Z,100959.03
2023-05-13T01:05:17.447Z,100960.28
2023-05-13T01:07:44.066Z,100962.26
2023-05-13T01:08:48.513Z,100960.61
2023-05-13T01:09:57.110Z,100954.61
2023-05-13T01:11:04.591Z,100957.47
2023-05-13T01:12:11.227Z,100964.61
2023-05-13T01:13:15.380Z,100964.71
2023-05-13T01:14:22.627Z,100965.66
2023-05-13T01:15:28.958Z,100964.17
2023-05-13T01:16:33.540Z,100964.38
2023-05-13T01:17:44.662Z,100967.84
2023-05-13T01:18:52.678Z,100961.84
2023-05-13T01:19:58.331Z,100965.93
2023-05-13T01:21:02.442Z,100966.02
2023-05-13T01:22:07.426Z,100966.02
2023-05-13T01:23:12.187Z,100962.63
2023-05-13T01:24:16.217Z,100961.97
2023-05-13T01:25:18.671Z,100962.73
2023-05-13T01:26:25.582Z,100960.25
2023-05-13T01:27:31.314Z,100962.73
2023-05-13T01:28:35.246Z,100960.92
2023-05-13T01:29:42.613Z,100959.84
2023-05-13T01:30:48.936Z,100961.88
2023-05-13T01:31:54.041Z,100963.01
2023-05-13T01:33:02.040Z,100964.15
2023-05-13T01:34:08.606Z,100966.05
2023-05-13T01:35:11.731Z,100963.48
2023-05-13T01:36:16.594Z,100957.20
2023-05-13T01:37:20.518Z,100953.99
2023-05-13T01:38:24.957Z,100955.80
2023-05-13T01:39:32.575Z,100958.56
2023-05-13T01:40:39.217Z,100952.66
2023-05-13T01:41:43.521Z,100958.57
2023-05-13T01:42:47.236Z,100950.58
2023-05-13T01:43:51.357Z,100952.67
2023-05-13T01:44:55.831Z,100961.14
2023-05-13T01:46:01.128Z,100951.54
2023-05-13T01:47:08.886Z,100953.34
2023-05-13T01:48:15.093Z,100953.53
2023-05-13T01:49:20.370Z,100950.50
2023-05-13T01:50:23.839Z,100948.97
2023-05-13T01:51:30.770Z,100952.00
2023-05-13T01:52:34.131Z,100947.44
2023-05-13T01:53:37.948Z,100952.77
2023-05-13T01:54:42.982Z,100961.33
2023-05-13T01:55:48.307Z,100956.19
2023-05-13T01:56:53.072Z,100955.15
2023-05-13T01:57:56.461Z,100953.25
2023-05-13T01:58:59.844Z,100960.30
2023-05-13T02:00:04.201Z,100955.15
2023-05-13T02:01:09.480Z,100957.05
2023-05-13T02:02:12.927Z,100956.95
2023-05-13T02:03:15.923Z,100952.77
2023-05-13T02:04:19.466Z,100949.33
2023-05-13T02:05:22.672Z,100955.52
2023-05-13T02:06:29.223Z,100957.50
2023-05-13T02:07:34.111Z,100968.05
2023-05-13T02:08:36.851Z,100955.64
2023-05-13T02:09:42.311Z,100957.06
2023-05-13T02:10:45.835Z,100955.99
2023-05-13T02:11:49.551Z,100958.50
2023-05-13T02:12:55.245Z,100952.70
2023-05-13T02:13:58.741Z,100947.20
2023-05-13T02:15:03.244Z,100953.17
2023-05-13T02:16:08.441Z,100957.55
2023-05-13T02:17:13.612Z,100950.52
2023-05-13T02:18:15.901Z,100954.16
2023-05-13T02:19:19.297Z,100954.72
2023-05-13T02:20:25.210Z,100951.88
2023-05-13T02:21:28.610Z,100947.59
2023-05-13T02:22:31.071Z,100949.73
2023-05-13T02:23:34.884Z,100952.18
2023-05-13T02:24:43.555Z,100958.56
2023-05-13T02:25:46.287Z,100959.63
2023-05-13T02:26:49.586Z,100952.51
2023-05-13T02:27:53.727Z,100957.44
2023-05-13T02:28:57.224Z,100953.47
2023-05-13T02:30:01.999Z,100961.28
2023-05-13T02:31:04.872Z,100957.76
2023-05-13T02:32:11.707Z,100961.95
2023-05-13T02:33:15.305Z,100964.08
2023-05-13T02:34:19.655Z,100959.13
2023-05-13T02:35:27.459Z,100964.27
2023-05-13T02:36:30.925Z,100967.60
2023-05-13T02:37:34.692Z,100969.50
2023-05-13T02:38:39.984Z,100969.31
2023-05-13T02:39:43.867Z,100968.55
2023-05-13T02:40:48.723Z,100977.03
2023-05-13T02:41:55.154Z,100977.39
2023-05-13T02:42:58.869Z,100974.81
2023-05-13T02:44:05.032Z,100974.13
2023-05-13T02:45:09.430Z,100976.34
2023-05-13T02:46:14.568Z,100976.92
2023-05-13T02:47:25.325Z,100974.88
2023-05-13T02:48:29.242Z,100983.25
2023-05-13T02:49:32.031Z,100984.48
2023-05-13T02:50:35.773Z,100987.05
2023-05-13T02:51:38.973Z,100986.87
2023-05-13T02:52:45.455Z,100991.37
2023-05-13T02:53:48.866Z,100982.51
2023-05-13T02:54:53.124Z,100981.42
2023-05-13T02:55:58.365Z,100984.72
2023-05-13T02:57:01.566Z,100988.83
2023-05-13T02:58:05.370Z,100990.37
2023-05-13T02:59:08.255Z,100986.63
2023-05-13T03:00:12.655Z,100993.58
2023-05-13T03:01:15.393Z,100986.95
2023-05-13T03:02:19.762Z,100984.84
2023-05-13T03:03:24.200Z,100986.09
2023-05-13T03:04:28.026Z,100986.16
2023-05-13T03:05:31.236Z,100991.00
2023-05-13T03:06:34.153Z,100991.14
2023-05-13T03:07:38.431Z,100993.37
2023-05-13T03:08:44.509Z,100989.59
2023-05-13T03:09:51.794Z,100986.20
2023-05-13T03:10:57.054Z,100994.02
2023-05-13T03:12:00.290Z,100996.81
2023-05-13T03:13:02.718Z,100989.22
2023-05-13T03:14:06.357Z,100997.13
2023-05-13T03:15:11.570Z,100992.19
2023-05-13T03:16:15.128Z,100999.33
2023-05-13T03:17:18.751Z,100999.73
2023-05-13T03:18:22.465Z,101007.08
2023-05-13T03:19:25.719Z,101004.66
2023-05-13T03:20:28.491Z,101004.80
2023-05-13T03:21:33.033Z,101001.80
2023-05-13T03:22:38.992Z,100999.17
2023-05-13T03:23:41.883Z,101007.08
2023-05-13T03:24:44.930Z,101001.52
2023-05-13T03:25:50.511Z,101002.67
2023-05-13T03:26:54.271Z,101005.44
2023-05-13T03:27:56.574Z,100999.23
2023-05-13T03:29:04.363Z,101003.72
2023-05-13T03:30:10.777Z,101001.05
2023-05-13T03:31:16.309Z,101000.95
2023-05-13T03:32:19.079Z,101001.71
2023-05-13T03:33:23.388Z,101002.07
2023-05-13T03:34:26.795Z,101008.46
2023-05-13T03:35:29.207Z,100998.77
2023-05-13T03:36:33.245Z,100997.91
2023-05-13T03:37:36.786Z,101004.97
2023-05-13T03:38:41.157Z,101011.18
2023-05-13T03:39:45.148Z,101004.58
2023-05-13T03:40:48.454Z,101006.50
2023-05-13T03:41:51.859Z,101002.56
2023-05-13T03:42:54.312Z,101005.95
2023-05-13T03:43:59.178Z,101001.47
2023-05-13T03:45:02.789Z,100999.77
2023-05-13T03:46:06.500Z,101007.71
2023-05-13T03:47:10.200Z,101011.65
2023-05-13T03:48:14.654Z,101005.25
2023-05-13T03:49:18.998Z,101005.80
2023-05-13T03:50:23.683Z,101006.00
2023-05-13T03:51:28.198Z,101008.25
2023-05-13T03:52:31.490Z,101004.18
2023-05-13T03:53:37.091Z,101006.95
2023-05-13T03:54:40.694Z,101015.29
2023-05-13T03:55:43.996Z,101023.64
2023-05-13T03:56:47.922Z,101014.55
2023-05-13T03:57:51.640Z,101020.00
2023-05-13T03:58:55.426Z,101015.30
2023-05-13T03:59:57.712Z,101020.52
2023-05-13T04:01:02.046Z,101027.75
2023-05-13T04:02:06.005Z,101025.40
2023-05-13T04:03:10.190Z,101027.61
2023-05-13T04:04:13.580Z,101029.11
2023-05-13T04:05:17.268Z,101028.56
2023-05-13T04:06:22.488Z,101026.44
2023-05-13T04:07:26.319Z,101022.42
2023-05-13T04:08:29.716Z,101023.89
2023-05-13T04:09:33.913Z,101022.58
2023-05-13T04:10:39.121Z,101023.71
2023-05-13T04:11:44.769Z,101021.56
2023-05-13T04:12:48.845Z,101027.18
2023-05-13T04:13:54.037Z,101028.91
2023-05-13T04:14:56.326Z,101039.65
2023-05-13T04:16:01.138Z,101030.37
2023-05-13T04:17:04.717Z,101034.71
2023-05-13T04:18:07.533Z,101036.67
2023-05-13T04:19:12.294Z,101033.11
2023-05-13T04:20:15.374Z,101037.90
2023-05-13T04:21:19.827Z,101045.29
2023-05-13T04:22:25.098Z,101046.34
2023-05-13T04:23:28.603Z,101054.59
2023-05-13T04:24:33.049Z,101051.67
2023-05-13T04:25:38.082Z,101049.42
2023-05-13T04:26:41.761Z,101058.34
2023-05-13T04:27:49.490Z,101070.02
2023-05-13T04:28:57.610Z,101067.30
2023-05-13T04:30:03.940Z,101075.66
2023-05-13T04:31:09.744Z,101067.27
2023-05-13T04:32:16.519Z,101078.45
2023-05-13T04:33:20.934Z,101093.91
2023-05-13T04:34:25.208Z,101095.98
2023-05-13T04:35:29.837Z,101102.58
2023-05-13T04:36:35.100Z,101100.22
2023-05-13T04:37:40.513Z,101105.59
2023-05-13T04:38:45.974Z,101111.22
2023-05-13T04:39:53.032Z,101108.71
2023-05-13T04:41:00.354Z,101115.31
2023-05-13T04:42:12.253Z,101112.78
2023-05-13T04:43:16.557Z,101121.50
2023-05-13T04:44:23.015Z,101119.87
2023-05-13T04:45:27.908Z,101119.02
2023-05-13T04:46:33.311Z,101119.52
2023-05-13T04:47:38.778Z,101121.83
2023-05-13T04:48:42.481Z,101126.42
2023-05-13T04:49:46.719Z,101123.11
2023-05-13T04:51:00.880Z,101125.61
2023-05-13T04:52:06.519Z,101119.95
2023-05-13T04:53:10.529Z,101131.34
2023-05-13T04:54:14.042Z,101127.12
2023-05-13T04:55:16.420Z,101125.52
2023-05-13T04:56:19.545Z,101126.98
2023-05-13T04:57:22.960Z,101123.14
2023-05-13T04:58:26.978Z,101133.73
2023-05-13T04:59:30.581Z,101132.03
2023-05-13T05:00:35.365Z,101136.46
2023-05-13T05:01:38.478Z,101131.20
2023-05-13T05:02:44.262Z,101127.45
2023-05-13T05:03:47.556Z,101130.31
2023-05-13T05:04:50.740Z,101142.33
2023-05-13T05:05:53.818Z,101137.16
2023-05-13T05:06:59.823Z,101140.40
2023-05-13T05:08:04.873Z,101139.14
2023-05-13T05:09:08.504Z,101137.94
2023-05-13T05:10:17.087Z,101136.49
2023-05-13T05:11:22.191Z,101136.56
2023-05-13T05:12:26.324Z,101146.67
2023-05-13T05:13:29.839Z,101146.20
2023-05-13T05:14:32.071Z,101140.02
2023-05-13T05:15:36.477Z,101137.30
2023-05-13T05:16:41.586Z,101140.80
2023-05-13T05:17:46.110Z,101147.73
2023-05-13T05:18:49.918Z,101156.31
2023-05-13T05:19:54.627Z,101154.91
2023-05-13T05:20:58.877Z,101156.28
2023-05-13T05:22:02.161Z,101159.47
2023-05-13T05:23:06.291Z,101166.39
2023-05-13T05:24:09.836Z,101169.41
2023-05-13T05:25:15.069Z,101164.69
2023-05-13T05:26:18.477Z,101176.21
2023-05-13T05:27:21.660Z,101166.55
2023-05-13T05:28:25.067Z,101171.67
2023-05-13T05:29:28.793Z,101169.64
2023-05-13T05:30:37.927Z,101172.70
2023-05-13T05:31:41.847Z,101168.62
2023-05-13T05:32:47.707Z,101181.14
2023-05-13T05:33:57.743Z,101181.17
2023-05-13T05:35:03.933Z,101183.00
2023-05-13T05:36:09.524Z,101170.22
2023-05-13T05:37:12.003Z,101188.99
2023-05-13T05:38:14.508Z,101183.08
2023-05-13T05:39:18.187Z,101183.67
2023-05-13T05:40:22.817Z,101188.96
2023-05-13T05:41:28.825Z,101186.85
2023-05-13T05:42:36.012Z,101176.42
2023-05-13T05:43:39.195Z,101173.57
2023-05-13T05:44:42.869Z,101180.40
2023-05-13T05:45:45.525Z,101185.47
2023-05-13T05:46:51.905Z,101184.62
2023-05-13T05:47:56.950Z,101182.60
2023-05-13T05:49:00.703Z,101182.81
2023-05-13T05:50:04.296Z,101183.98
2023-05-13T05:51:06.662Z,101188.48
2023-05-13T05:52:13.557Z,101183.41
2023-05-13T05:53:17.236Z,101186.93
2023-05-13T05:54:20.731Z,101190.58
2023-05-13T05:55:24.756Z,101185.45
2023-05-13T05:56:28.694Z,101189.65
2023-05-13T05:57:32.118Z,101190.14
2023-05-13T05:58:36.005Z,101188.55
2023-05-13T05:59:38.357Z,101181.26
2023-05-13T06:00:41.632Z,101184.16
2023-05-13T06:01:44.425Z,101186.99
2023-05-13T06:02:49.490Z,101187.89
2023-05-13T06:03:55.142Z,101179.70
2023-05-13T06:04:58.911Z,101168.55
2023-05-13T06:06:02.416Z,101174.64
2023-05-13T06:07:09.955Z,101171.63
2023-05-13T06:08:15.099Z,101168.11
2023-05-13T06:09:21.532Z,101175.04
2023-05-13T06:10:27.822Z,101168.34
2023-05-13T06:11:31.748Z,101164.92
2023-05-13T06:12:42.151Z,101174.22
2023-05-13T06:13:45.643Z,101167.66
2023-05-13T06:14:48.315Z,101168.24
2023-05-13T06:15:52.376Z,101168.20
2023-05-13T06:16:57.424Z,101168.42
2023-05-13T06:18:00.932Z,101169.37
2023-05-13T06:19:05.919Z,101170.73
2023-05-13T06:20:10.222Z,101166.45
2023-05-13T06:21:12.900Z,101161.86
2023-05-13T06:22:15.100Z,101165.66
2023-05-13T06:23:21.047Z,101178.06
2023-05-13T06:24:24.458Z,101178.16
2023-05-13T06:25:27.744Z,101174.55
2023-05-13T06:26:32.300Z,101177.80
2023-05-13T06:27:36.854Z,101184.85
2023-05-13T06:28:39.204Z,101176.36
2023-05-13T06:29:42.718Z,101181.41
2023-05-13T06:30:46.522Z,101179.57
2023-05-13T06:31:50.191Z,101188.84
2023-05-13T06:33:01.544Z,101187.28
2023-05-13T06:34:03.670Z,101184.02
2023-05-13T06:35:11.470Z,101193.89
2023-05-13T06:36:16.843Z,101191.25
2023-05-13T06:37:19.634Z,101193.69
2023-05-13T06:38:23.192Z,101195.11
2023-05-13T06:39:28.698Z,101200.00
2023-05-13T06:40:34.994Z,101187.64
2023-05-13T06:42:52.706Z,101198.82
2023-05-13T06:43:57.930Z,101202.81
2023-05-13T06:45:06.186Z,101204.45
2023-05-13T06:46:09.440Z,101204.61
2023-05-13T06:47:16.217Z,101208.98
2023-05-13T06:48:21.740Z,101211.98
2023-05-13T06:49:26.954Z,101209.78
2023-05-13T06:50:30.984Z,101205.51
2023-05-13T06:51:35.735Z,101199.07
2023-05-13T06:52:41.725Z,101196.95
2023-05-13T06:53:44.200Z,101202.85
2023-05-13T06:54:49.911Z,101197.33
2023-05-13T06:55:52.463Z,101204.48
2023-05-13T06:56:59.861Z,101210.45
2023-05-13T06:58:03.457Z,101205.56
2023-05-13T06:59:06.965Z,101204.48
2023-05-13T07:00:11.321Z,101202.92
2023-05-13T07:01:14.763Z,101203.20
2023-05-13T07:02:18.090Z,101197.36
2023-05-13T07:03:21.883Z,101208.91
2023-05-13T07:04:25.415Z,101206.77
2023-05-13T07:05:29.032Z,101198.98
2023-05-13T07:06:32.534Z,101208.34
2023-05-13T07:07:36.044Z,101215.42
2023-05-13T07:08:40.378Z,101202.48
2023-05-13T07:09:43.746Z,101210.47
2023-05-13T07:10:47.097Z,101214.16
2023-05-13T07:11:50.807Z,101213.22
2023-05-13T07:12:54.293Z,101206.97
2023-05-13T07:13:56.649Z,101215.10
2023-05-13T07:15:00.049Z,101219.23
2023-05-13T07:16:03.763Z,101210.73
2023-05-13T07:17:07.949Z,101220.91
2023-05-13T07:18:13.291Z,101208.38
2023-05-13T07:19:16.968Z,101213.42
2023-05-13T07:20:22.999Z,101201.58
2023-05-13T07:21:26.501Z,101203.77
2023-05-13T07:22:29.912Z,101205.11
2023-05-13T07:23:35.249Z,101207.03
2023-05-13T07:24:38.379Z,101206.05
2023-05-13T07:25:44.922Z,101207.90
2023-05-13T07:26:48.944Z,101207.88
2023-05-13T07:27:52.875Z,101198.91
2023-05-13T07:28:56.974Z,101200.34
2023-05-13T07:30:00.538Z,101200.54
2023-05-13T07:31:05.029Z,101200.92
2023-05-13T07:32:09.576Z,101198.88
2023-05-13T07:33:13.360Z,101205.12
2023-05-13T07:34:17.036Z,101201.62
2023-05-13T07:35:20.367Z,101200.16
2023-05-13T07:36:24.873Z,101200.66
2023-05-13T07:37:27.228Z,101200.54
2023-05-13T07:38:30.408Z,101209.50
2023-05-13T07:39:33.599Z,101201.04
2023-05-13T07:40:36.909Z,101195.39
2023-05-13T07:41:40.720Z,101198.72
2023-05-13T07:42:43.910Z,101191.99
2023-05-13T07:43:46.605Z,101190.45
2023-05-13T07:44:49.996Z,101196.93
2023-05-13T07:45:53.497Z,101190.19
2023-05-13T07:47:00.307Z,101187.62
2023-05-13T07:48:03.300Z,101195.16
2023-05-13T07:49:09.749Z,101198.20
2023-05-13T07:50:13.472Z,101190.66
2023-05-13T07:51:24.742Z,101183.87
2023-05-13T07:52:29.927Z,101193.70
2023-05-13T07:53:32.449Z,101185.64
2023-05-13T07:54:38.566Z,101172.21
2023-05-13T07:55:42.278Z,101184.62
2023-05-13T07:56:47.453Z,101181.31
2023-05-13T07:57:50.847Z,101187.52
2023-05-13T07:58:54.780Z,101176.89
2023-05-13T07:59:58.506Z,101179.34
2023-05-13T08:01:01.365Z,101184.16
2023-05-13T08:02:07.825Z,101179.87
2023-05-13T08:03:11.514Z,101177.61
2023-05-13T08:04:15.184Z,101172.20
2023-05-13T08:05:19.800Z,101180.23
2023-05-13T08:06:23.489Z,101176.42
2023-05-13T08:07:27.196Z,101183.23
2023-05-13T08:08:31.548Z,101176.03
2023-05-13T08:09:37.336Z,101174.87
2023-05-13T08:10:40.737Z,101168.86
2023-05-13T08:11:44.977Z,101176.95
2023-05-13T08:12:50.479Z,101170.33
2023-05-13T08:13:54.190Z,101182.18
2023-05-13T08:14:57.474Z,101170.16
2023-05-13T08:16:02.429Z,101171.88
2023-05-13T08:17:08.936Z,101165.97
2023-05-13T08:18:15.138Z,101170.02
2023-05-13T08:19:18.685Z,101168.75
2023-05-13T08:20:23.467Z,101166.77
2023-05-13T08:21:25.790Z,101160.07
2023-05-13T08:22:32.235Z,101165.09
2023-05-13T08:23:44.852Z,101161.33
2023-05-13T08:24:44.847Z,101161.02
2023-05-13T08:25:48.716Z,101158.48
2023-05-13T08:26:52.224Z,101160.53
2023-05-13T08:27:55.516Z,101158.80
2023-05-13T08:28:58.918Z,101158.80
2023-05-13T08:30:01.267Z,101159.95
2023-05-13T08:31:04.579Z,101161.38
2023-05-13T08:32:08.325Z,101165.16
2023-05-13T08:33:11.891Z,101160.07
2023-05-13T08:34:15.504Z,101156.59
2023-05-13T08:35:18.718Z,101149.31
2023-05-13T08:36:29.744Z,101158.91
2023-05-13T08:37:32.389Z,101148.88
2023-05-13T08:38:35.593Z,101160.47
2023-05-13T08:39:38.064Z,101148.41
2023-05-13T08:40:42.073Z,101153.32
2023-05-13T08:41:46.979Z,101156.08
2023-05-13T08:42:51.592Z,101151.09
2023-05-13T08:43:57.701Z,101149.49
2023-05-13T08:45:02.256Z,101146.22
2023-05-13T08:46:07.435Z,101148.04
2023-05-13T08:47:15.666Z,101147.31
2023-05-13T08:48:20.304Z,101151.72
2023-05-13T08:49:25.663Z,101148.34
2023-05-13T08:50:31.478Z,101145.59
2023-05-13T08:51:34.877Z,101141.98
2023-05-13T08:52:40.456Z,101140.92
2023-05-13T08:53:45.239Z,101145.80
2023-05-13T08:54:49.466Z,101151.72
2023-05-13T08:55:54.166Z,101146.02
2023-05-13T08:56:57.511Z,101145.30
2023-05-13T08:58:02.259Z,101135.17
2023-05-13T08:59:09.220Z,101139.00
2023-05-13T09:00:21.224Z,101130.48
2023-05-13T09:01:27.832Z,101134.12
2023-05-13T09:02:31.355Z,101131.75
2023-05-13T09:03:34.739Z,101138.34
2023-05-13T09:04:39.930Z,101130.53
2023-05-13T09:05:46.344Z,101123.31
2023-05-13T09:06:49.517Z,101132.25
2023-05-13T09:07:53.032Z,101129.72
2023-05-13T09:08:56.957Z,101128.67
2023-05-13T09:10:01.295Z,101130.78
2023-05-13T09:11:04.644Z,101120.20
2023-05-13T09:12:07.492Z,101125.86
2023-05-13T09:13:13.504Z,101125.81
2023-05-13T09:14:21.908Z,101126.98
2023-05-13T09:15:27.666Z,101113.86
2023-05-13T09:16:32.385Z,101120.31
2023-05-13T09:17:38.057Z,101116.61
2023-05-13T09:18:43.715Z,101114.53
2023-05-13T09:19:46.562Z,101109.00
2023-05-13T09:20:51.296Z,101109.71
2023-05-13T09:21:55.008Z,101109.89
2023-05-13T09:23:02.391Z,101112.63
2023-05-13T09:24:08.654Z,101112.66
2023-05-13T09:25:12.409Z,101120.21
2023-05-13T09:26:32.934Z,101119.45
2023-05-13T09:27:44.318Z,101111.81
2023-05-13T09:28:54.621Z,101107.19
2023-05-13T09:30:02.662Z,101101.45
2023-05-13T09:31:05.937Z,101102.44
2023-05-13T09:32:10.640Z,101103.03
2023-05-13T09:33:23.421Z,101109.91
2023-05-13T09:34:35.853Z,101097.67
2023-05-13T09:35:40.680Z,101092.17
2023-05-13T09:36:44.276Z,101088.76
2023-05-13T09:37:48.616Z,101083.95
2023-05-13T09:38:55.608Z,101091.71
2023-05-13T09:39:58.916Z,101091.81
2023-05-13T09:41:05.178Z,101087.53
2023-05-13T09:42:18.192Z,101078.41
2023-05-13T09:43:22.650Z,101081.01
2023-05-13T09:44:25.628Z,101083.06
2023-05-13T09:45:30.008Z,101071.16
2023-05-13T09:46:33.944Z,101072.64
2023-05-13T09:47:41.204Z,101079.15
2023-05-13T09:48:44.758Z,101077.42
2023-05-13T09:49:50.153Z,101067.97
2023-05-13T09:50:58.187Z,101068.80
2023-05-13T09:52:04.271Z,101070.71
2023-05-13T09:53:17.036Z,101075.95
2023-05-13T09:54:20.998Z,101075.88
2023-05-13T09:55:24.492Z,101064.15
2023-05-13T09:56:30.403Z,101063.34
2023-05-13T09:57:33.542Z,101067.74
2023-05-13T09:58:35.844Z,101063.95
2023-05-13T09:59:39.230Z,101063.53
2023-05-13T10:00:44.547Z,101062.08
2023-05-13T10:01:47.434Z,101063.55
2023-05-13T10:02:52.550Z,101054.71
2023-05-13T10:04:01.464Z,101064.60
2023-05-13T10:05:02.673Z,101067.29
2023-05-13T10:06:06.540Z,101063.84
2023-05-13T10:07:10.572Z,101062.45
2023-05-13T10:08:14.285Z,101063.51
2023-05-13T10:09:20.312Z,101059.97
2023-05-13T10:10:23.889Z,101055.30
2023-05-13T10:11:28.453Z,101055.52
2023-05-13T10:12:32.376Z,101059.84
2023-05-13T10:13:36.425Z,101058.97
2023-05-13T10:14:40.854Z,101047.67
2023-05-13T10:15:53.025Z,101058.22
2023-05-13T10:16:58.835Z,101047.08
2023-05-13T10:18:05.922Z,101051.88
2023-05-13T10:19:09.296Z,101046.55
2023-05-13T10:20:13.309Z,101049.98
2023-05-13T10:21:18.217Z,101036.48
2023-05-13T10:22:32.543Z,101042.45
2023-05-13T10:23:35.626Z,101048.16
2023-05-13T10:24:39.863Z,101049.64
2023-05-13T10:25:44.520Z,101042.47
2023-05-13T10:26:52.557Z,101039.52
2023-05-13T10:27:56.827Z,101039.75
2023-05-13T10:28:59.523Z,101044.23
2023-05-13T10:30:03.883Z,101048.97
2023-05-13T10:31:07.477Z,101041.36
2023-05-13T10:32:12.624Z,101032.84
2023-05-13T10:33:16.539Z,101039.70
2023-05-13T10:34:21.325Z,101029.11
2023-05-13T10:35:26.453Z,101038.81
2023-05-13T10:36:32.094Z,101036.20
2023-05-13T10:37:53.460Z,101030.39
2023-05-13T10:39:01.901Z,101026.55
2023-05-13T10:40:14.155Z,101023.66
2023-05-13T10:41:19.215Z,101025.09
2023-05-13T10:42:28.265Z,101023.92
2023-05-13T10:43:36.906Z,101018.69
2023-05-13T10:44:41.751Z,101027.16
2023-05-13T10:45:48.668Z,101030.23
2023-05-13T10:46:53.315Z,101016.23
2023-05-13T10:47:57.377Z,101026.70
2023-05-13T10:49:01.825Z,101014.14
2023-05-13T10:50:06.474Z,101017.14
2023-05-13T10:51:10.844Z,101017.98
2023-05-13T10:52:13.909Z,101017.86
2023-05-13T10:53:25.241Z,101016.70
2023-05-13T10:54:30.540Z,101021.09
2023-05-13T10:55:36.545Z,101015.50
2023-05-13T10:56:40.361Z,101015.31
2023-05-13T10:58:06.936Z,101015.17
2023-05-13T10:59:12.017Z,101017.66
2023-05-13T11:00:16.893Z,101015.78
2023-05-13T11:01:21.959Z,101020.70
2023-05-13T11:02:28.247Z,101010.94
2023-05-13T11:03:32.000Z,101019.20
2023-05-13T11:04:37.471Z,101012.63
2023-05-13T11:05:41.292Z,101012.75
2023-05-13T11:06:48.181Z,101018.28
2023-05-13T11:07:58.448Z,101005.42
2023-05-13T11:09:02.044Z,101014.08
2023-05-13T11:10:13.289Z,101005.56
2023-05-13T11:11:23.469Z,100998.84
2023-05-13T11:12:27.292Z,101001.81
2023-05-13T11:13:32.350Z,101000.45
2023-05-13T11:14:35.708Z,101011.16
2023-05-13T11:15:46.737Z,101005.30
2023-05-13T11:17:02.320Z,101001.43
2023-05-13T11:18:05.105Z,100991.88
2023-05-13T11:19:11.202Z,100998.41
2023-05-13T11:20:22.619Z,101001.09
2023-05-13T11:21:34.180Z,100996.87
2023-05-13T11:22:37.911Z,100991.12
2023-05-13T11:24:00.937Z,100992.99
2023-05-13T11:25:12.598Z,100992.22
2023-05-13T11:26:20.591Z,100988.36
2023-05-13T11:27:24.294Z,100988.58
2023-05-13T11:28:44.822Z,100994.92
2023-05-13T11:29:53.976Z,100998.50
2023-05-13T11:31:00.860Z,100995.98
2023-05-13T11:32:05.421Z,100996.59
2023-05-13T11:33:12.847Z,100997.77
2023-05-13T11:34:17.752Z,100998.12
2023-05-13T11:35:22.242Z,100990.66
2023-05-13T11:36:27.419Z,100986.69
2023-05-13T11:37:32.904Z,100982.78
2023-05-13T11:38:36.431Z,100987.99
2023-05-13T11:39:41.212Z,100984.60
2023-05-13T11:40:48.343Z,100987.88
2023-05-13T11:41:53.006Z,100988.88
2023-05-13T11:42:55.775Z,100986.59
2023-05-13T11:43:59.181Z,100983.48
2023-05-13T11:45:05.339Z,100988.64
2023-05-13T11:46:10.821Z,100983.96
2023-05-13T11:47:16.093Z,100984.20
2023-05-13T11:48:20.929Z,100983.97
2023-05-13T11:49:44.593Z,100984.60
2023-05-13T11:50:49.976Z,100983.86
2023-05-13T11:51:53.729Z,100979.81
2023-05-13T11:52:58.347Z,100981.32
2023-05-13T11:54:02.787Z,100976.91
2023-05-13T11:55:07.174Z,100979.63
2023-05-13T11:56:14.849Z,100977.28
2023-05-13T11:57:20.927Z,100979.86
2023-05-13T11:58:23.910Z,100971.98
2023-05-13T11:59:35.754Z,100973.17
2023-05-13T12:00:34.772Z,100966.25
2023-05-13T12:01:39.240Z,100966.33
2023-05-13T12:02:46.663Z,100961.25
2023-05-13T12:03:50.527Z,100954.03
2023-05-13T12:04:54.232Z,100958.78
2023-05-13T12:06:02.859Z,100966.46
2023-05-13T12:07:06.259Z,100941.72
2023-05-13T12:08:11.956Z,100952.92
2023-05-13T12:09:15.296Z,100961.53
2023-05-13T12:10:17.889Z,100959.81
2023-05-13T12:11:24.568Z,100953.56
2023-05-13T12:12:27.991Z,100954.55
2023-05-13T12:13:31.255Z,100959.73
2023-05-13T12:14:33.928Z,100959.55
2023-05-13T12:15:37.323Z,100964.81
2023-05-13T12:16:42.544Z,100966.09
2023-05-13T12:17:49.187Z,100956.53
2023-05-13T12:19:01.171Z,100955.03
2023-05-13T12:20:15.372Z,100951.09
2023-05-13T12:21:20.131Z,100952.50
2023-05-13T12:22:23.625Z,100954.77
2023-05-13T12:23:26.842Z,100954.77
2023-05-13T12:24:32.115Z,100944.47